createdAt,value
2023-08-21T00:01:31.501Z,1.27
2023-08-21T00:03:58.131Z,1.33
2023-08-21T00:06:24.633Z,1.52
2023-08-21T00:08:51.166Z,1.70
2023-08-21T00:11:17.830Z,1.50
2023-08-21T00:13:45.880Z,1.45
2023-08-21T00:16:12.629Z,1.63
2023-08-21T00:18:39.273Z,1.60
2023-08-21T00:21:06.071Z,1.40
2023-08-21T00:23:32.877Z,1.52
2023-08-21T00:25:59.425Z,1.30
2023-08-21T00:28:26.017Z,1.30
2023-08-21T00:30:52.601Z,1.40
2023-08-21T00:33:19.187Z,1.30
2023-08-21T00:35:45.841Z,1.58
2023-08-21T00:38:12.697Z,1.80
2023-08-21T00:40:39.315Z,1.50
2023-08-21T00:43:06.117Z,1.30
2023-08-21T00:45:32.688Z,1.48
2023-08-21T00:47:59.447Z,1.33
2023-08-21T00:50:26.150Z,1.17
2023-08-21T00:52:52.863Z,1.60
2023-08-21T00:55:19.640Z,1.42
2023-08-21T00:57:46.948Z,1.40
2023-08-21T01:00:14.646Z,1.50
2023-08-21T01:02:44.155Z,1.63
2023-08-21T01:05:12.809Z,1.55
2023-08-21T01:07:51.093Z,1.60
2023-08-21T01:10:31.087Z,1.55
2023-08-21T01:13:32.883Z,1.30
2023-08-21T01:15:59.895Z,1.52
2023-08-21T01:18:29.246Z,1.40
2023-08-21T01:20:56.851Z,1.40
2023-08-21T01:23:48.587Z,1.38
2023-08-21T01:26:15.166Z,1.65
2023-08-21T01:28:41.773Z,1.60
2023-08-21T01:31:14.953Z,1.70
2023-08-21T01:33:52.018Z,1.65
2023-08-21T01:36:19.205Z,1.60
2023-08-21T01:38:46.193Z,1.90
2023-08-21T01:41:12.848Z,1.98
2023-08-21T01:43:39.494Z,1.75
2023-08-21T01:46:06.098Z,1.85
2023-08-21T01:48:32.648Z,1.60
2023-08-21T01:51:02.331Z,1.55
2023-08-21T01:53:28.938Z,1.90
2023-08-21T01:55:55.521Z,1.73
2023-08-21T01:58:22.079Z,2.78
2023-08-21T02:00:49.204Z,1.95
2023-08-21T02:03:16.041Z,1.90
2023-08-21T02:05:42.686Z,1.65
2023-08-21T02:08:13.432Z,1.80
2023-08-21T02:10:53.997Z,1.60
2023-08-21T02:13:21.197Z,2.00
2023-08-21T02:15:47.956Z,1.90
2023-08-21T02:18:14.791Z,1.70
2023-08-21T02:20:41.473Z,1.45
2023-08-21T02:23:08.006Z,1.50
2023-08-21T02:25:34.534Z,1.70
2023-08-21T02:28:01.247Z,1.58
2023-08-21T02:30:29.095Z,2.10
2023-08-21T02:32:55.856Z,1.80
2023-08-21T02:35:22.459Z,1.85
2023-08-21T02:37:49.083Z,1.67
2023-08-21T02:40:15.656Z,1.60
2023-08-21T02:42:42.209Z,1.88
2023-08-21T02:45:09.661Z,1.45
2023-08-21T02:47:38.582Z,1.83
2023-08-21T02:50:06.526Z,1.88
2023-08-21T02:52:34.332Z,1.65
2023-08-21T02:55:01.582Z,1.95
2023-08-21T02:57:28.923Z,1.80
2023-08-21T02:59:56.183Z,1.85
2023-08-21T03:02:23.449Z,1.92
2023-08-21T03:04:50.501Z,1.92
2023-08-21T03:07:17.153Z,1.58
2023-08-21T03:09:43.790Z,1.80
2023-08-21T03:12:10.324Z,1.92
2023-08-21T03:14:36.863Z,2.15
2023-08-21T03:17:03.361Z,1.88
2023-08-21T03:19:29.931Z,1.80
2023-08-21T03:21:56.498Z,1.63
2023-08-21T03:24:23.054Z,2.10
2023-08-21T03:26:49.594Z,1.58
2023-08-21T03:29:16.110Z,1.95
2023-08-21T03:31:42.749Z,1.60
2023-08-21T03:34:09.700Z,2.00
2023-08-21T03:36:38.197Z,1.85
2023-08-21T03:39:06.861Z,1.70
2023-08-21T03:41:33.571Z,1.80
2023-08-21T03:44:00.087Z,1.58
2023-08-21T03:46:26.710Z,1.92
2023-08-21T03:48:53.375Z,1.63
2023-08-21T03:51:19.941Z,1.90
2023-08-21T03:53:46.566Z,1.92
2023-08-21T03:56:13.126Z,2.30
2023-08-21T03:58:39.669Z,2.10
2023-08-21T04:01:06.210Z,1.58
2023-08-21T04:03:32.757Z,1.83
2023-08-21T04:06:00.054Z,1.80
2023-08-21T04:08:26.576Z,1.73
2023-08-21T04:11:00.184Z,2.05
2023-08-21T04:13:27.143Z,1.70
2023-08-21T04:15:56.891Z,1.65
2023-08-21T04:18:38.620Z,1.80
2023-08-21T04:21:07.725Z,1.50
2023-08-21T04:23:34.397Z,1.90
2023-08-21T04:26:04.626Z,2.20
2023-08-21T04:31:01.548Z,1.60
2023-08-21T04:33:37.705Z,1.42
2023-08-21T04:36:04.578Z,1.52
2023-08-21T04:38:31.199Z,1.83
2023-08-21T04:41:09.458Z,1.50
2023-08-21T04:43:36.154Z,2.33
2023-08-21T04:46:02.804Z,1.60
2023-08-21T04:48:29.409Z,1.60
2023-08-21T04:50:56.137Z,1.80
2023-08-21T04:53:22.744Z,2.10
2023-08-21T04:55:49.352Z,1.77
2023-08-21T04:58:16.013Z,1.80
2023-08-21T05:00:42.567Z,1.65
2023-08-21T05:03:12.005Z,1.90
2023-08-21T05:05:38.572Z,2.00
2023-08-21T05:08:05.366Z,1.40
2023-08-21T05:10:31.979Z,1.98
2023-08-21T05:12:58.930Z,1.60
2023-08-21T05:15:25.888Z,1.52
2023-08-21T05:17:52.467Z,1.63
2023-08-21T05:20:19.328Z,1.60
2023-08-21T05:22:45.900Z,1.50
2023-08-21T05:25:12.466Z,1.92
2023-08-21T05:27:39.092Z,1.40
2023-08-21T05:30:07.106Z,1.75
2023-08-21T05:32:33.774Z,1.70
2023-08-21T05:35:00.427Z,1.88
2023-08-21T05:37:28.138Z,2.63
2023-08-21T05:39:54.887Z,1.80
2023-08-21T05:42:21.524Z,1.70
2023-08-21T05:44:48.148Z,2.20
2023-08-21T05:47:14.697Z,2.20
2023-08-21T05:49:41.348Z,1.50
2023-08-21T05:52:07.907Z,1.73
2023-08-21T05:54:34.541Z,2.10
2023-08-21T05:57:01.137Z,1.65
2023-08-21T05:59:29.931Z,2.20
2023-08-21T06:01:56.564Z,2.00
2023-08-21T06:04:23.844Z,2.20
2023-08-21T06:06:50.443Z,2.03
2023-08-21T06:09:18.626Z,1.88
2023-08-21T06:11:45.326Z,1.58
2023-08-21T06:14:11.852Z,1.52
2023-08-21T06:16:38.550Z,2.00
2023-08-21T06:19:05.187Z,1.67
2023-08-21T06:21:31.756Z,3.20
2023-08-21T06:23:58.315Z,1.70
2023-08-21T06:26:24.881Z,1.85
2023-08-21T06:28:52.729Z,2.33
2023-08-21T06:31:19.432Z,2.00
2023-08-21T06:33:46.081Z,2.55
2023-08-21T06:36:12.611Z,1.77
2023-08-21T06:38:39.159Z,2.65
2023-08-21T06:41:09.681Z,2.50
2023-08-21T06:43:38.063Z,2.30
2023-08-21T06:46:04.668Z,2.42
2023-08-21T06:48:31.301Z,2.08
2023-08-21T06:50:57.924Z,2.10
2023-08-21T06:53:24.493Z,1.58
2023-08-21T06:55:51.033Z,1.92
2023-08-21T06:58:17.567Z,2.03
2023-08-21T07:00:44.168Z,2.13
2023-08-21T07:03:10.814Z,2.42
2023-08-21T07:05:38.358Z,2.70
2023-08-21T07:08:06.698Z,2.28
2023-08-21T07:10:39.796Z,2.00
2023-08-21T07:13:06.382Z,2.70
2023-08-21T07:15:33.007Z,2.40
2023-08-21T07:17:59.618Z,2.35
2023-08-21T07:20:26.246Z,2.20
2023-08-21T07:22:52.776Z,2.63
2023-08-21T07:25:20.328Z,2.80
2023-08-21T07:27:47.578Z,2.30
2023-08-21T07:30:14.257Z,2.65
2023-08-21T07:32:41.049Z,3.15
2023-08-21T07:35:08.193Z,2.30
2023-08-21T07:37:34.685Z,2.17
2023-08-21T07:40:01.343Z,2.70
2023-08-21T07:42:27.878Z,1.80
2023-08-21T07:44:54.463Z,2.83
2023-08-21T07:47:21.032Z,2.70
2023-08-21T07:49:47.577Z,2.55
2023-08-21T07:52:14.142Z,3.08
2023-08-21T07:54:40.623Z,2.83
2023-08-21T07:57:07.806Z,2.63
2023-08-21T07:59:34.370Z,2.45
2023-08-21T08:02:01.762Z,2.50
2023-08-21T08:04:28.357Z,3.00
2023-08-21T08:06:55.034Z,2.58
2023-08-21T08:09:21.550Z,2.30
2023-08-21T08:11:48.135Z,3.00
2023-08-21T08:14:15.059Z,2.20
2023-08-21T08:16:41.688Z,1.80
2023-08-21T08:19:09.000Z,1.95
2023-08-21T08:21:35.545Z,1.98
2023-08-21T08:24:02.059Z,3.13
2023-08-21T08:26:28.619Z,2.40
2023-08-21T08:28:55.105Z,2.10
2023-08-21T08:31:21.883Z,3.08
2023-08-21T08:33:49.304Z,2.75
2023-08-21T08:36:15.906Z,2.40
2023-08-21T08:38:42.422Z,2.53
2023-08-21T08:41:15.750Z,2.40
2023-08-21T08:43:42.321Z,2.30
2023-08-21T08:46:10.646Z,2.10
2023-08-21T08:48:38.636Z,2.30
2023-08-21T08:51:05.419Z,2.55
2023-08-21T08:53:32.110Z,2.40
2023-08-21T08:55:59.341Z,2.20
2023-08-21T08:58:25.970Z,2.17
2023-08-21T09:00:52.583Z,2.70
2023-08-21T09:03:19.269Z,2.60
2023-08-21T09:05:46.110Z,2.50
2023-08-21T09:08:13.766Z,2.47
2023-08-21T09:10:41.579Z,2.55
2023-08-21T09:13:20.388Z,2.40
2023-08-21T09:15:49.290Z,3.03
2023-08-21T09:18:16.931Z,2.33
2023-08-21T09:20:43.871Z,1.98
2023-08-21T09:23:15.515Z,2.65
2023-08-21T09:25:42.412Z,2.22
2023-08-21T09:28:09.856Z,1.83
2023-08-21T09:30:46.173Z,2.70
2023-08-21T09:33:12.979Z,2.38
2023-08-21T09:35:40.721Z,2.60
2023-08-21T09:38:08.273Z,2.28
2023-08-21T09:40:34.907Z,2.38
2023-08-21T09:43:04.970Z,2.70
2023-08-21T09:45:31.802Z,2.25
2023-08-21T09:47:59.771Z,3.33
2023-08-21T09:50:29.665Z,3.03
2023-08-21T09:52:58.170Z,5.28
2023-08-21T09:55:26.423Z,2.97
2023-08-21T09:57:59.650Z,4.50
2023-08-21T10:00:35.925Z,3.00
2023-08-21T10:03:05.340Z,2.70
2023-08-21T10:08:03.930Z,3.13
2023-08-21T10:10:38.598Z,2.50
2023-08-21T10:13:06.490Z,2.90
2023-08-21T10:15:34.951Z,2.70
2023-08-21T10:18:26.036Z,2.80
2023-08-21T10:20:53.988Z,2.60
2023-08-21T10:23:31.548Z,2.58
2023-08-21T10:26:02.055Z,3.10
2023-08-21T10:28:49.284Z,2.55
2023-08-21T10:31:44.063Z,2.38
2023-08-21T10:34:14.895Z,2.83
2023-08-21T10:36:44.807Z,2.25
2023-08-21T10:39:19.477Z,2.60
2023-08-21T10:41:58.729Z,2.85
2023-08-21T10:44:36.589Z,3.38
2023-08-21T10:47:41.681Z,3.30
2023-08-21T10:50:09.834Z,2.65
2023-08-21T10:52:39.360Z,3.20
2023-08-21T10:55:06.691Z,3.53
2023-08-21T10:57:34.402Z,2.70
2023-08-21T11:00:10.458Z,3.65
2023-08-21T11:02:38.632Z,3.30
2023-08-21T11:05:06.224Z,3.42
2023-08-21T11:07:45.059Z,3.40
2023-08-21T11:10:15.925Z,2.78
2023-08-21T11:13:00.463Z,3.50
2023-08-21T11:15:28.881Z,2.60
2023-08-21T11:18:02.824Z,2.38
2023-08-21T11:20:35.420Z,2.83
2023-08-21T11:23:06.414Z,3.47
2023-08-21T11:25:34.055Z,3.40
2023-08-21T11:28:03.740Z,3.58
2023-08-21T11:30:32.110Z,3.15
2023-08-21T11:33:11.681Z,2.70
2023-08-21T11:35:39.440Z,3.03
2023-08-21T11:38:10.260Z,2.83
2023-08-21T11:40:37.162Z,2.70
2023-08-21T11:43:06.335Z,2.63
2023-08-21T11:45:45.373Z,3.00
2023-08-21T11:48:21.219Z,3.13
2023-08-21T11:50:49.468Z,2.83
2023-08-21T11:53:16.019Z,2.55
2023-08-21T11:55:42.625Z,2.60
2023-08-21T11:58:09.228Z,2.28
2023-08-21T12:00:35.803Z,2.08
2023-08-21T12:03:04.183Z,1.92
2023-08-21T12:05:31.110Z,2.13
2023-08-21T12:07:57.765Z,1.80
2023-08-21T12:10:26.111Z,2.25
2023-08-21T12:12:52.764Z,2.00
2023-08-21T12:15:20.214Z,1.92
2023-08-21T12:17:46.842Z,2.17
2023-08-21T12:20:13.529Z,2.55
2023-08-21T12:22:40.602Z,2.08
2023-08-21T12:25:08.436Z,2.03
2023-08-21T12:27:35.053Z,1.88
2023-08-21T12:30:01.673Z,2.10
2023-08-21T12:32:28.319Z,2.10
2023-08-21T12:34:54.897Z,1.88
2023-08-21T12:37:21.561Z,2.10
2023-08-21T12:39:48.152Z,1.88
2023-08-21T12:42:14.763Z,2.10
2023-08-21T12:44:41.663Z,2.10
2023-08-21T12:47:08.236Z,1.83
2023-08-21T12:49:36.152Z,1.55
2023-08-21T12:52:03.250Z,1.83
2023-08-21T12:54:29.833Z,2.13
2023-08-21T12:56:57.776Z,2.10
2023-08-21T12:59:24.386Z,1.60
2023-08-21T13:01:50.941Z,2.17
2023-08-21T13:04:17.599Z,1.67
2023-08-21T13:06:44.195Z,2.00
2023-08-21T13:09:10.776Z,1.95
2023-08-21T13:11:37.311Z,2.00
2023-08-21T13:14:04.529Z,2.00
2023-08-21T13:16:31.097Z,1.75
2023-08-21T13:18:57.691Z,1.48
2023-08-21T13:21:24.336Z,2.00
2023-08-21T13:23:50.958Z,1.50
2023-08-21T13:26:17.624Z,2.15
2023-08-21T13:28:44.277Z,1.92
2023-08-21T13:31:12.253Z,2.05
2023-08-21T13:33:51.184Z,1.50
2023-08-21T13:36:19.444Z,1.73
2023-08-21T13:38:45.958Z,1.50
2023-08-21T13:41:12.519Z,1.50
2023-08-21T13:43:41.339Z,1.40
2023-08-21T13:46:08.675Z,1.80
2023-08-21T13:48:35.484Z,1.58
2023-08-21T13:51:02.181Z,1.35
2023-08-21T13:53:28.797Z,1.48
2023-08-21T13:55:55.320Z,1.60
2023-08-21T13:58:22.437Z,1.55
2023-08-21T14:00:49.064Z,1.48
2023-08-21T14:03:15.654Z,1.30
2023-08-21T14:05:42.205Z,1.30
2023-08-21T14:08:09.301Z,1.50
2023-08-21T14:10:36.633Z,1.45
2023-08-21T14:13:04.800Z,1.25
2023-08-21T14:15:31.588Z,1.85
2023-08-21T14:17:58.214Z,1.80
2023-08-21T14:20:24.826Z,1.70
2023-08-21T14:22:51.507Z,1.70
2023-08-21T14:25:18.755Z,1.70
2023-08-21T14:27:45.291Z,1.50
2023-08-21T14:30:12.261Z,1.60
2023-08-21T14:32:39.085Z,1.38
2023-08-21T14:35:09.430Z,1.27
2023-08-21T14:37:37.291Z,1.60
2023-08-21T14:40:08.884Z,1.40
2023-08-21T14:42:35.677Z,1.42
2023-08-21T14:45:04.497Z,1.50
2023-08-21T14:47:31.254Z,0.82
2023-08-21T14:49:58.450Z,1.25
2023-08-21T14:52:25.195Z,1.33
2023-08-21T14:54:52.347Z,1.30
2023-08-21T14:57:18.853Z,1.65
2023-08-21T14:59:45.425Z,1.50
2023-08-21T15:02:12.198Z,1.63
2023-08-21T15:04:38.862Z,1.23
2023-08-21T15:07:05.384Z,1.20
2023-08-21T15:09:31.934Z,1.70
2023-08-21T15:11:58.411Z,2.05
2023-08-21T15:14:24.940Z,1.75
2023-08-21T15:16:53.561Z,1.73
2023-08-21T15:19:23.634Z,1.50
2023-08-21T15:21:50.150Z,1.60
2023-08-21T15:24:16.689Z,1.80
2023-08-21T15:26:43.218Z,1.50
2023-08-21T15:29:09.720Z,1.50
2023-08-21T15:31:36.294Z,1.70
2023-08-21T15:34:03.846Z,1.50
2023-08-21T15:38:59.626Z,1.77
2023-08-21T15:41:26.164Z,1.67
2023-08-21T15:43:53.102Z,1.85
2023-08-21T15:46:19.740Z,1.65
2023-08-21T15:48:46.342Z,1.70
2023-08-21T15:51:12.848Z,1.42
2023-08-21T15:53:39.477Z,1.45
2023-08-21T15:56:06.181Z,1.40
2023-08-21T15:58:32.705Z,1.40
2023-08-21T16:00:59.479Z,1.50
2023-08-21T16:03:26.145Z,1.63
2023-08-21T16:05:52.984Z,1.77
2023-08-21T16:08:20.590Z,1.70
2023-08-21T16:10:47.119Z,1.55
2023-08-21T16:13:13.622Z,1.75
2023-08-21T16:15:40.376Z,1.50
2023-08-21T16:18:07.521Z,1.50
2023-08-21T16:20:34.206Z,1.55
2023-08-21T16:23:00.818Z,1.77
2023-08-21T16:25:27.394Z,1.20
2023-08-21T16:27:53.933Z,1.52
2023-08-21T16:30:20.652Z,1.20
2023-08-21T16:32:47.379Z,1.52
2023-08-21T16:35:14.013Z,1.75
2023-08-21T16:37:42.546Z,1.40
2023-08-21T16:40:10.552Z,1.50
2023-08-21T16:42:37.370Z,1.42
2023-08-21T16:45:04.892Z,1.48
2023-08-21T16:47:31.583Z,1.45
2023-08-21T16:50:01.954Z,1.48
2023-08-21T16:52:30.042Z,1.58
2023-08-21T16:54:58.058Z,1.52
2023-08-21T16:57:24.660Z,1.40
2023-08-21T16:59:51.234Z,1.20
2023-08-21T17:02:21.934Z,1.20
2023-08-21T17:04:49.643Z,1.40
2023-08-21T17:07:16.612Z,1.25
2023-08-21T17:09:47.444Z,1.50
2023-08-21T17:12:15.306Z,1.13
2023-08-21T17:14:41.857Z,1.55
2023-08-21T17:17:08.370Z,1.83
2023-08-21T17:19:34.897Z,1.35
2023-08-21T17:22:01.452Z,1.80
2023-08-21T17:24:27.978Z,1.40
2023-08-21T17:26:54.508Z,1.42
2023-08-21T17:29:21.115Z,1.25
2023-08-21T17:31:47.605Z,1.30
2023-08-21T17:34:14.121Z,1.08
2023-08-21T17:36:40.655Z,1.35
2023-08-21T17:39:07.178Z,1.52
2023-08-21T17:41:33.817Z,1.77
2023-08-21T17:44:00.362Z,1.30
2023-08-21T17:46:26.914Z,1.40
2023-08-21T17:48:53.518Z,1.20
2023-08-21T17:51:20.304Z,1.52
2023-08-21T17:53:46.866Z,1.40
2023-08-21T17:56:13.485Z,1.20
2023-08-21T17:58:40.204Z,1.40
2023-08-21T18:01:06.816Z,1.10
2023-08-21T18:03:33.417Z,1.20
2023-08-21T18:06:01.190Z,1.10
2023-08-21T18:08:28.210Z,1.15
2023-08-21T18:10:55.288Z,1.40
2023-08-21T18:13:21.891Z,1.38
2023-08-21T18:15:52.077Z,1.50
2023-08-21T18:18:18.755Z,1.30
2023-08-21T18:20:55.735Z,1.40
2023-08-21T18:23:26.830Z,1.20
2023-08-21T18:25:54.515Z,1.50
2023-08-21T18:28:26.449Z,1.52
2023-08-21T18:30:55.832Z,1.30
2023-08-21T18:33:23.377Z,1.60
2023-08-21T18:35:51.389Z,1.40
2023-08-21T18:38:18.666Z,1.55
2023-08-21T18:40:45.299Z,1.50
2023-08-21T18:43:11.818Z,1.20
2023-08-21T18:45:38.530Z,1.40
2023-08-21T18:48:06.518Z,1.42
2023-08-21T18:50:42.789Z,1.45
2023-08-21T18:53:10.561Z,1.38
2023-08-21T18:55:39.624Z,1.30
2023-08-21T18:58:06.502Z,1.35
2023-08-21T19:00:33.140Z,1.48
2023-08-21T19:03:00.815Z,1.23
2023-08-21T19:05:27.608Z,1.38
2023-08-21T19:07:54.179Z,1.20
2023-08-21T19:10:21.109Z,1.70
2023-08-21T19:12:47.912Z,1.40
2023-08-21T19:15:15.928Z,1.67
2023-08-21T19:17:43.334Z,1.50
2023-08-21T19:20:10.770Z,1.50
2023-08-21T19:22:37.690Z,1.40
2023-08-21T19:25:05.137Z,1.48
2023-08-21T19:27:32.029Z,1.55
2023-08-21T19:29:58.951Z,2.00
2023-08-21T19:32:25.761Z,1.45
2023-08-21T19:34:53.557Z,1.50
2023-08-21T19:37:22.199Z,1.52
2023-08-21T19:39:49.728Z,1.45
2023-08-21T19:42:16.372Z,1.83
2023-08-21T19:44:43.607Z,1.55
2023-08-21T19:47:10.205Z,1.63
2023-08-21T19:49:37.642Z,1.80
2023-08-21T19:52:05.259Z,1.70
2023-08-21T19:54:31.847Z,1.63
2023-08-21T19:56:58.529Z,1.63
2023-08-21T19:59:27.614Z,1.63
2023-08-21T20:01:54.153Z,1.55
2023-08-21T20:04:20.684Z,1.38
2023-08-21T20:06:47.217Z,1.67
2023-08-21T20:09:14.284Z,1.98
2023-08-21T20:11:41.246Z,2.05
2023-08-21T20:14:07.743Z,2.15
2023-08-21T20:16:34.409Z,1.70
2023-08-21T20:19:01.659Z,1.70
2023-08-21T20:21:30.115Z,1.60
2023-08-21T20:23:58.266Z,1.55
2023-08-21T20:26:25.846Z,1.42
2023-08-21T20:28:52.405Z,1.83
2023-08-21T20:31:18.988Z,1.65
2023-08-21T20:33:45.646Z,1.73
2023-08-21T20:36:12.250Z,1.60
2023-08-21T20:38:38.772Z,1.63
2023-08-21T20:41:06.477Z,1.85
2023-08-21T20:43:34.736Z,1.65
2023-08-21T20:46:03.759Z,1.92
2023-08-21T20:48:30.309Z,2.00
2023-08-21T20:50:58.166Z,2.53
2023-08-21T20:53:26.316Z,2.60
2023-08-21T20:55:54.394Z,2.50
2023-08-21T20:58:21.010Z,2.00
2023-08-21T21:00:47.968Z,1.77
2023-08-21T21:03:15.468Z,1.83
2023-08-21T21:05:42.487Z,2.38
2023-08-21T21:08:09.116Z,2.47
2023-08-21T21:10:36.139Z,2.50
2023-08-21T21:13:03.862Z,2.03
2023-08-21T21:15:30.926Z,1.95
2023-08-21T21:17:58.106Z,1.80
2023-08-21T21:20:25.429Z,1.90
2023-08-21T21:22:51.900Z,1.90
2023-08-21T21:25:18.423Z,2.05
2023-08-21T21:27:45.064Z,1.50
2023-08-21T21:30:11.870Z,1.90
2023-08-21T21:32:38.563Z,2.47
2023-08-21T21:35:05.602Z,1.90
2023-08-21T21:37:34.268Z,2.08
2023-08-21T21:40:00.941Z,2.25
2023-08-21T21:42:29.105Z,2.05
2023-08-21T21:44:55.768Z,1.92
2023-08-21T21:47:22.422Z,2.20
2023-08-21T21:49:48.917Z,2.20
2023-08-21T21:52:15.445Z,1.98
2023-08-21T21:54:42.173Z,1.95
2023-08-21T21:57:08.733Z,2.03
2023-08-21T21:59:35.271Z,1.98
2023-08-21T22:02:01.877Z,2.22
2023-08-21T22:04:28.464Z,2.28
2023-08-21T22:06:55.000Z,2.70
2023-08-21T22:09:21.681Z,2.30
2023-08-21T22:11:48.282Z,2.40
2023-08-21T22:14:16.355Z,2.17
2023-08-21T22:16:42.901Z,2.20
2023-08-21T22:19:09.494Z,2.10
2023-08-21T22:21:36.036Z,2.10
2023-08-21T22:24:02.528Z,3.35
2023-08-21T22:26:29.226Z,3.35
2023-08-21T22:28:55.747Z,2.97
2023-08-21T22:31:31.957Z,2.50
2023-08-21T22:34:06.882Z,2.15
2023-08-21T22:36:33.416Z,2.20
2023-08-21T22:38:59.923Z,2.13
2023-08-21T22:41:26.421Z,3.97
2023-08-21T22:43:52.947Z,4.03
2023-08-21T22:46:19.558Z,5.13
2023-08-21T22:48:46.168Z,3.05
2023-08-21T22:51:12.824Z,2.65
2023-08-21T22:53:39.624Z,2.83
2023-08-21T22:56:06.143Z,2.45
2023-08-21T22:58:32.696Z,3.42
2023-08-21T23:00:59.815Z,2.67
2023-08-21T23:03:26.871Z,2.50
2023-08-21T23:05:57.154Z,2.53
2023-08-21T23:08:28.148Z,2.30
2023-08-21T23:10:55.049Z,3.08
2023-08-21T23:13:21.698Z,2.58
2023-08-21T23:15:49.638Z,3.00
2023-08-21T23:18:19.632Z,3.22
2023-08-21T23:20:58.501Z,2.42
2023-08-21T23:23:25.092Z,2.13
2023-08-21T23:25:55.895Z,2.78
2023-08-21T23:28:22.685Z,2.47
2023-08-21T23:30:49.234Z,2.70
2023-08-21T23:33:15.863Z,2.10
2023-08-21T23:35:42.493Z,2.40
2023-08-21T23:38:09.033Z,2.80
2023-08-21T23:40:37.711Z,2.17
2023-08-21T23:43:08.170Z,2.33
2023-08-21T23:45:35.844Z,2.97
2023-08-21T23:48:03.559Z,2.58
2023-08-21T23:50:30.804Z,2.33
2023-08-21T23:52:58.426Z,2.85
2023-08-21T23:55:25.011Z,2.80
2023-08-21T23:57:52.040Z,2.38
